Time;durP1;ratioP1;P1;durP2;ratioP2;P2;SDS_P1;SDS_P2;PMS_P1;PMS_P2;Temp;Humidity;BMP_temperature;BMP_pressure;BME280_temperature;BME280_humidity;BME280_pressure;Samples;Min_cycle;Max_cycle;Signal;HPM_P1;HPM_P2
2021/10/09 00:01:33;;;;;;;18.50;11.73;;;;;;;4.72;83.12;102195.94;5030770;28;20030;-83
2021/10/09 00:03:58;;;;;;;19.23;11.63;;;;;;;4.69;82.70;102198.44;5010656;28;20033;-83
2021/10/09 00:06:23;;;;;;;21.55;11.77;;;;;;;4.64;83.11;102199.94;5008930;28;20064;-83
2021/10/09 00:08:49;;;;;;;19.98;11.13;;;;;;;4.63;83.30;102202.47;5012627;28;20054;-83
2021/10/09 00:11:18;;;;;;;20.80;11.60;;;;;;;4.61;82.40;102205.00;5006763;28;20038;-83
2021/10/09 00:13:44;;;;;;;16.58;10.80;;;;;;;4.59;82.53;102202.34;5011026;28;20085;-83
2021/10/09 00:16:10;;;;;;;20.30;10.52;;;;;;;4.56;82.76;102202.22;5009724;28;20037;-83
2021/10/09 00:18:35;;;;;;;19.42;11.07;;;;;;;4.56;82.60;102211.78;5007179;28;20065;-83
2021/10/09 00:21:00;;;;;;;20.13;11.23;;;;;;;4.55;82.29;102204.75;5009822;28;20451;-82
2021/10/09 00:23:26;;;;;;;19.80;10.30;;;;;;;4.52;82.72;102210.72;5007067;28;20046;-83
2021/10/09 00:25:51;;;;;;;17.98;9.98;;;;;;;4.52;82.16;102209.84;5009242;28;20054;-83
2021/10/09 00:28:16;;;;;;;26.02;11.80;;;;;;;4.46;82.93;102206.97;5007685;28;20041;-82
2021/10/09 00:30:42;;;;;;;22.15;11.68;;;;;;;4.41;82.93;102200.63;5022747;28;20038;-82
2021/10/09 00:33:07;;;;;;;23.85;10.82;;;;;;;4.35;83.04;102204.75;5007569;28;20088;-82
2021/10/09 00:35:32;;;;;;;21.20;10.90;;;;;;;4.29;83.25;102201.81;5006717;28;20035;-82
2021/10/09 00:37:58;;;;;;;21.35;11.63;;;;;;;4.28;83.12;102200.06;5006910;28;20027;-84
2021/10/09 00:40:24;;;;;;;22.23;12.13;;;;;;;4.26;83.04;102209.53;5006292;28;20056;-84
2021/10/09 00:42:49;;;;;;;18.50;12.05;;;;;;;4.26;82.75;102200.81;5011296;28;20029;-84
2021/10/09 00:45:14;;;;;;;18.65;12.05;;;;;;;4.22;82.70;102202.41;5007824;28;20438;-83
2021/10/09 00:47:40;;;;;;;19.02;12.18;;;;;;;4.22;82.84;102206.69;5022517;28;20568;-84
2021/10/09 00:50:06;;;;;;;20.75;11.45;;;;;;;4.21;83.08;102203.19;5010330;28;20083;-83
2021/10/09 00:52:34;;;;;;;22.02;12.32;;;;;;;4.21;83.42;102204.91;5006301;28;20038;-83
2021/10/09 00:55:01;;;;;;;18.30;10.88;;;;;;;4.23;83.15;102209.41;5005586;28;20039;-83
2021/10/09 00:57:28;;;;;;;20.70;11.63;;;;;;;4.19;83.41;102202.22;5015623;28;20026;-83
2021/10/09 00:59:57;;;;;;;18.10;10.90;;;;;;;4.16;82.82;102202.09;5006918;28;20548;-83
2021/10/09 01:02:24;;;;;;;17.25;10.45;;;;;;;4.15;82.84;102202.91;5012993;28;20041;-83
2021/10/09 01:04:51;;;;;;;20.90;11.43;;;;;;;4.09;82.46;102200.91;5006415;28;20543;-83
2021/10/09 01:07:16;;;;;;;17.08;11.10;;;;;;;4.04;82.92;102202.41;5020767;28;20084;-83
2021/10/09 01:09:45;;;;;;;18.20;10.68;;;;;;;4.05;82.87;102203.31;5009362;28;20047;-83
2021/10/09 01:12:14;;;;;;;15.18;9.18;;;;;;;4.06;83.00;102194.63;5025725;28;20037;-83
2021/10/09 01:14:39;;;;;;;20.20;11.82;;;;;;;4.06;83.08;102185.09;4994093;28;20042;-83
2021/10/09 01:17:04;;;;;;;21.85;11.40;;;;;;;4.04;83.20;102189.34;5026644;28;20080;-83
2021/10/09 01:19:30;;;;;;;18.30;11.55;;;;;;;3.98;82.88;102183.81;5024360;28;20035;-83
2021/10/09 01:21:56;;;;;;;21.15;10.75;;;;;;;3.93;82.80;102186.25;5010437;28;20034;-83
2021/10/09 01:24:25;;;;;;;16.17;9.25;;;;;;;3.85;82.39;102177.16;5009764;28;20057;-83
2021/10/09 01:26:50;;;;;;;21.25;11.77;;;;;;;3.78;82.69;102184.63;5025137;28;20052;-83
2021/10/09 01:29:21;;;;;;;16.23;9.45;;;;;;;3.71;82.92;102186.91;5002763;28;20026;-83
2021/10/09 01:31:50;;;;;;;16.90;10.18;;;;;;;3.63;83.56;102190.88;5009272;28;20083;-83
2021/10/09 01:34:22;;;;;;;13.85;9.50;;;;;;;3.61;83.43;102189.00;5006575;28;20030;-83
2021/10/09 01:36:50;;;;;;;20.73;10.60;;;;;;;3.59;83.19;102188.97;5011325;28;20405;-82
2021/10/09 01:39:16;;;;;;;15.85;9.00;;;;;;;3.60;83.22;102182.91;5010115;28;20034;-83
2021/10/09 01:41:49;;;;;;;14.95;9.95;;;;;;;3.57;83.38;102187.09;5026346;28;20125;-83
2021/10/09 01:44:17;;;;;;;16.05;10.52;;;;;;;3.48;82.60;102183.22;5024909;28;20030;-82
2021/10/09 01:46:46;;;;;;;15.90;10.38;;;;;;;3.41;82.89;102182.84;5025775;28;20497;-83
2021/10/09 01:49:12;;;;;;;18.17;10.23;;;;;;;3.39;83.15;102187.06;5025294;28;20044;-83
2021/10/09 01:51:37;;;;;;;19.48;10.90;;;;;;;3.38;83.33;102187.88;5024700;28;20027;-83
2021/10/09 01:54:03;;;;;;;17.98;10.80;;;;;;;3.36;83.29;102190.44;5008678;28;20026;-84
2021/10/09 01:56:29;;;;;;;14.48;9.07;;;;;;;3.33;83.19;102186.75;5008044;28;20038;-83
2021/10/09 01:58:55;;;;;;;17.45;8.93;;;;;;;3.30;83.05;102187.50;5025278;28;20030;-82
2021/10/09 02:01:30;;;;;;;19.45;9.20;;;;;;;3.26;83.11;102189.06;5015832;28;20084;-83
2021/10/09 02:03:55;;;;;;;12.82;8.85;;;;;;;3.24;83.30;102195.03;5010696;28;20029;-82
2021/10/09 02:06:21;;;;;;;19.33;11.65;;;;;;;3.18;83.05;102195.63;4997495;28;20048;-82
2021/10/09 02:08:48;;;;;;;17.25;10.27;;;;;;;3.16;83.35;102188.53;5028356;28;20283;-82
2021/10/09 02:11:17;;;;;;;18.20;10.95;;;;;;;3.13;82.94;102186.66;4997999;28;20077;-82
2021/10/09 02:14:01;;;;;;;20.08;11.45;;;;;;;3.12;83.20;102183.97;5004686;28;20188;-83
2021/10/09 02:16:52;;;;;;;23.50;11.82;;;;;;;3.13;83.24;102191.88;5024270;28;20034;-83
2021/10/09 02:27:30;;;;;;;20.92;11.85;;;;;;;3.17;83.65;102193.84;5023918;28;20120;-83
2021/10/09 02:29:56;;;;;;;21.00;11.63;;;;;;;3.11;83.50;102192.63;5021059;28;20026;-82
2021/10/09 02:32:21;;;;;;;20.42;12.32;;;;;;;3.04;83.72;102184.50;5009018;28;20117;-82
2021/10/09 02:34:46;;;;;;;21.20;11.77;;;;;;;3.01;83.52;102188.63;5020260;28;20041;-82
2021/10/09 02:37:12;;;;;;;20.08;11.02;;;;;;;3.01;84.05;102192.16;5008262;28;20080;-82
2021/10/09 02:39:41;;;;;;;19.20;10.98;;;;;;;3.02;83.74;102188.72;5003098;28;20032;-82
2021/10/09 02:42:06;;;;;;;18.38;11.02;;;;;;;3.01;83.70;102189.56;5017052;28;20495;-82
2021/10/09 02:44:32;;;;;;;19.98;12.07;;;;;;;2.99;83.54;102193.78;4987482;28;20461;-82
2021/10/09 02:46:57;;;;;;;23.52;11.43;;;;;;;2.94;83.99;102195.25;5018455;28;20112;-82
2021/10/09 02:49:23;;;;;;;21.60;12.68;;;;;;;2.92;83.74;102191.69;5019856;28;20033;-83
2021/10/09 02:51:48;;;;;;;19.63;12.55;;;;;;;2.90;84.43;102193.31;5019114;28;20099;-82
2021/10/09 02:54:13;;;;;;;24.50;13.27;;;;;;;2.87;84.00;102193.16;5015311;28;20250;-82
2021/10/09 02:56:39;;;;;;;25.33;13.10;;;;;;;2.84;84.41;102193.00;5018193;28;20041;-82
2021/10/09 02:59:04;;;;;;;22.50;12.07;;;;;;;2.81;84.44;102198.06;4987281;28;20030;-82
2021/10/09 03:01:30;;;;;;;24.85;12.07;;;;;;;2.80;84.30;102193.63;5017763;28;20210;-82
2021/10/09 03:03:56;;;;;;;19.20;11.73;;;;;;;2.80;84.66;102198.84;5004937;28;20108;-82
2021/10/09 03:06:25;;;;;;;17.85;11.30;;;;;;;2.77;85.03;102199.59;5017289;28;20603;-82
2021/10/09 03:08:50;;;;;;;21.25;13.18;;;;;;;2.75;84.41;102198.63;5008715;28;20026;-82
2021/10/09 03:11:15;;;;;;;16.98;11.50;;;;;;;2.76;84.64;102204.75;5021546;28;20060;-82
2021/10/09 03:13:44;;;;;;;21.35;12.60;;;;;;;2.78;84.66;102195.28;5016974;28;20109;-82
2021/10/09 03:16:11;;;;;;;19.05;11.55;;;;;;;2.79;84.45;102200.56;5001031;28;20081;-82
2021/10/09 03:18:37;;;;;;;19.10;10.98;;;;;;;2.80;84.25;102196.25;5008696;28;20076;-82
2021/10/09 03:21:04;;;;;;;23.30;11.75;;;;;;;2.79;84.25;102199.69;4984820;28;20042;-82
2021/10/09 03:23:30;;;;;;;18.58;10.77;;;;;;;2.80;84.03;102204.06;5020373;28;20420;-82
2021/10/09 03:25:55;;;;;;;24.50;12.18;;;;;;;2.77;84.18;102202.19;5017631;28;20034;-82
2021/10/09 03:28:22;;;;;;;22.45;12.50;;;;;;;2.71;83.69;102203.59;5018790;28;20034;-82
2021/10/09 03:30:50;;;;;;;28.52;14.20;;;;;;;2.67;84.13;102204.25;4985799;28;20030;-82
2021/10/09 03:33:15;;;;;;;25.05;12.52;;;;;;;2.68;84.10;102214.75;5018399;28;20034;-82
2021/10/09 03:35:41;;;;;;;25.67;12.98;;;;;;;2.70;84.41;102210.53;5018261;28;20033;-82
2021/10/09 03:38:06;;;;;;;21.50;12.63;;;;;;;2.70;84.39;102209.63;5017685;28;20132;-82
2021/10/09 03:40:32;;;;;;;20.20;12.80;;;;;;;2.71;84.85;102206.22;5024323;28;20033;-82
2021/10/09 03:43:06;;;;;;;22.10;12.63;;;;;;;2.71;84.43;102206.22;5024713;28;20140;-82
2021/10/09 03:46:17;;;;;;;24.88;13.70;;;;;;;2.71;83.97;102207.09;5020152;28;20125;-83
2021/10/09 03:53:39;;;;;;;18.95;11.88;;;;;;;2.71;84.37;102209.72;5005389;28;20030;-82
2021/10/09 03:56:05;;;;;;;24.55;13.20;;;;;;;2.69;84.59;102208.72;5000221;28;20035;-82
2021/10/09 03:58:38;;;;;;;23.33;13.88;;;;;;;2.61;84.88;102210.94;5003377;28;20053;-82
2021/10/09 04:01:03;;;;;;;26.55;14.63;;;;;;;2.59;85.37;102212.59;5016394;28;20440;-83
2021/10/09 04:03:29;;;;;;;25.15;12.90;;;;;;;2.53;85.83;102217.44;5003894;28;20030;-82
2021/10/09 04:05:55;;;;;;;22.88;14.73;;;;;;;2.47;85.74;102219.72;5016739;28;20105;-82
2021/10/09 04:08:21;;;;;;;26.00;14.80;;;;;;;2.48;86.10;102223.22;5015623;28;20038;-82
2021/10/09 04:10:46;;;;;;;20.17;12.30;;;;;;;2.49;85.44;102218.13;5001738;28;20034;-82
2021/10/09 04:13:12;;;;;;;26.50;13.73;;;;;;;2.50;85.71;102222.50;5001376;28;20076;-82
2021/10/09 04:15:37;;;;;;;24.00;13.75;;;;;;;2.52;85.41;102220.00;5019026;28;20030;-83
2021/10/09 04:18:03;;;;;;;20.80;12.45;;;;;;;2.51;85.65;102219.06;5006256;28;20080;-82
2021/10/09 04:20:29;;;;;;;23.10;13.45;;;;;;;2.51;85.20;102213.84;5007308;28;20025;-82
2021/10/09 04:22:55;;;;;;;20.63;12.43;;;;;;;2.49;85.34;102215.50;5008561;28;20096;-82
2021/10/09 04:25:20;;;;;;;20.35;11.80;;;;;;;2.46;85.48;102209.22;4984213;28;20030;-82
2021/10/09 04:27:47;;;;;;;23.63;13.20;;;;;;;2.45;85.47;102213.53;5019600;28;20026;-82
2021/10/09 04:30:13;;;;;;;25.85;13.15;;;;;;;2.40;85.06;102218.50;5023587;28;20025;-82
2021/10/09 04:32:39;;;;;;;20.75;12.73;;;;;;;2.39;85.13;102213.22;5002937;28;20030;-83
2021/10/09 04:35:06;;;;;;;23.33;12.18;;;;;;;2.38;84.80;102221.81;5023058;28;20037;-83
2021/10/09 04:37:32;;;;;;;26.30;13.15;;;;;;;2.37;85.07;102214.84;5020162;28;20026;-83
2021/10/09 04:39:57;;;;;;;18.55;10.93;;;;;;;2.35;84.81;102219.06;5019345;28;20089;-83
2021/10/09 04:42:23;;;;;;;24.50;12.63;;;;;;;2.34;84.96;102210.34;5022366;28;20037;-83
2021/10/09 04:44:48;;;;;;;21.92;13.13;;;;;;;2.35;85.27;102211.25;5021082;28;20393;-83
2021/10/09 04:47:14;;;;;;;21.85;13.43;;;;;;;2.38;84.80;102208.81;5012336;28;20057;-82
2021/10/09 04:49:41;;;;;;;22.60;12.98;;;;;;;2.38;84.54;102211.41;5026915;28;20524;-82
2021/10/09 04:52:07;;;;;;;19.75;12.02;;;;;;;2.38;84.76;102211.41;5005889;28;20034;-82
2021/10/09 04:54:32;;;;;;;20.83;12.50;;;;;;;2.39;85.13;102206.28;5000989;28;20092;-81
2021/10/09 04:56:57;;;;;;;27.60;13.73;;;;;;;2.41;85.01;102207.28;5003761;28;20089;-82
2021/10/09 04:59:23;;;;;;;24.00;13.10;;;;;;;2.44;85.32;102211.75;5007747;28;20045;-82
2021/10/09 05:01:49;;;;;;;21.10;12.43;;;;;;;2.43;84.89;102217.75;5019609;28;20089;-82
2021/10/09 05:04:15;;;;;;;21.40;12.45;;;;;;;2.42;85.14;102215.97;5002492;28;20055;-81
2021/10/09 05:06:41;;;;;;;28.27;13.85;;;;;;;2.42;85.37;102218.59;5023222;28;20034;-79
2021/10/09 05:09:07;;;;;;;25.98;13.98;;;;;;;2.47;85.83;102217.13;5006884;28;20042;-81
2021/10/09 05:11:34;;;;;;;24.00;13.65;;;;;;;2.50;85.65;102222.50;5004044;28;20038;-82
2021/10/09 05:13:59;;;;;;;26.17;14.00;;;;;;;2.51;86.04;102218.19;5023352;28;20417;-82
2021/10/09 05:16:27;;;;;;;24.58;13.85;;;;;;;2.60;86.62;102208.25;5022324;28;20428;-82
2021/10/09 05:18:52;;;;;;;24.85;14.75;;;;;;;2.63;86.98;102219.72;5008865;28;20031;-83
2021/10/09 05:21:18;;;;;;;30.15;14.10;;;;;;;2.71;87.01;102225.34;5005930;28;20057;-83
2021/10/09 05:23:43;;;;;;;24.80;13.07;;;;;;;2.74;87.11;102228.13;5004181;28;20046;-83
2021/10/09 05:26:09;;;;;;;27.67;14.68;;;;;;;2.71;87.17;102232.28;5004838;28;20500;-82
2021/10/09 05:28:41;;;;;;;23.52;14.30;;;;;;;2.72;87.21;102239.28;5004133;28;20027;-82
2021/10/09 05:31:10;;;;;;;26.52;14.35;;;;;;;2.74;87.43;102235.03;5004798;28;20140;-82
2021/10/09 05:33:42;;;;;;;24.70;13.82;;;;;;;2.74;86.85;102238.53;5004147;28;20038;-82
2021/10/09 05:36:07;;;;;;;26.33;14.32;;;;;;;2.80;86.79;102244.09;5003649;28;20042;-82
2021/10/09 05:38:34;;;;;;;25.92;14.30;;;;;;;2.83;87.28;102243.38;5005627;28;20034;-83
2021/10/09 05:40:59;;;;;;;32.67;13.80;;;;;;;2.85;86.57;102244.31;5005459;28;20032;-83
2021/10/09 05:43:31;;;;;;;25.98;13.90;;;;;;;2.90;87.03;102255.00;5020538;28;20026;-82
2021/10/09 05:45:58;;;;;;;28.08;13.40;;;;;;;2.93;86.45;102257.75;5000929;28;20687;-82
2021/10/09 05:48:24;;;;;;;19.92;13.15;;;;;;;2.96;86.66;102260.53;5003846;28;20030;-83
2021/10/09 05:51:07;;;;;;;24.58;13.15;;;;;;;3.00;86.25;102260.78;5020415;28;20029;-83
2021/10/09 05:56:15;;;;;;;20.77;12.93;;;;;;;3.05;85.56;102261.91;5001901;28;20050;-82
2021/10/09 05:58:52;;;;;;;23.27;13.70;;;;;;;3.11;85.53;102270.88;5004174;28;20084;-82
2021/10/09 06:01:46;;;;;;;25.90;13.23;;;;;;;3.12;85.38;102268.38;5000612;28;20038;-81
2021/10/09 06:31:07;;;;;;;19.73;12.65;;;;;;;3.59;84.17;102280.34;5020292;28;20452;-81
2021/10/09 06:32:01;;;;;;;21.35;12.07;;;;;;;3.71;83.91;102282.66;5020188;28;20034;-81
2021/10/09 07:01:23;;;;;;;26.85;12.30;;;;;;;4.74;82.33;102305.84;5027148;28;20071;-81
2021/10/09 07:03:49;;;;;;;21.13;12.80;;;;;;;4.83;81.54;102301.06;5007479;28;20030;-82
2021/10/09 07:06:17;;;;;;;24.85;12.82;;;;;;;4.94;81.68;102305.03;5022177;28;20492;-81
2021/10/09 07:09:03;;;;;;;22.17;12.50;;;;;;;5.07;81.57;102305.59;5025705;28;20031;-82
2021/10/09 07:11:48;;;;;;;30.80;12.82;;;;;;;5.20;80.91;102307.94;5027788;28;20046;-82
2021/10/09 07:14:15;;;;;;;24.52;12.48;;;;;;;5.26;80.66;102302.97;5009623;28;20061;-83
2021/10/09 07:16:40;;;;;;;21.55;11.13;;;;;;;5.37;80.48;102306.97;5008017;28;20041;-82
2021/10/09 07:19:07;;;;;;;19.77;12.25;;;;;;;5.48;80.45;102312.66;5006823;28;20026;-82
2021/10/09 07:21:36;;;;;;;18.35;10.70;;;;;;;5.59;80.29;102308.78;5031253;28;20105;-82
2021/10/09 07:24:01;;;;;;;20.88;11.07;;;;;;;5.67;79.96;102309.97;5011882;28;20062;-82
2021/10/09 07:26:27;;;;;;;18.40;11.32;;;;;;;5.74;79.42;102312.84;5022058;28;20571;-81
2021/10/09 07:28:52;;;;;;;19.88;12.23;;;;;;;5.82;79.00;102311.47;5009909;28;20049;-81
2021/10/09 07:31:18;;;;;;;24.25;10.95;;;;;;;5.92;78.80;102314.53;5021689;28;20034;-81
2021/10/09 07:33:43;;;;;;;19.92;10.75;;;;;;;6.04;79.13;102313.28;5025819;28;20041;-82
2021/10/09 07:36:08;;;;;;;20.23;11.02;;;;;;;6.15;78.38;102318.09;5009462;28;20088;-81
2021/10/09 07:38:34;;;;;;;19.25;11.43;;;;;;;6.27;78.14;102322.97;5010692;28;20064;-81
2021/10/09 07:40:59;;;;;;;18.17;10.52;;;;;;;6.40;77.19;102318.22;5026507;28;20038;-81
2021/10/09 07:43:25;;;;;;;18.02;9.50;;;;;;;6.52;76.61;102324.84;5008952;28;20034;-81
2021/10/09 07:45:50;;;;;;;17.88;9.52;;;;;;;6.66;75.92;102316.63;5022919;28;20038;-82
2021/10/09 07:48:16;;;;;;;18.45;10.20;;;;;;;6.76;75.31;102316.13;5029052;28;20030;-81
2021/10/09 07:50:41;;;;;;;18.83;10.75;;;;;;;6.85;75.14;102319.09;5015296;28;20073;-82
2021/10/09 07:53:06;;;;;;;18.33;9.90;;;;;;;6.96;74.84;102307.25;5013029;28;20084;-81
2021/10/09 07:55:32;;;;;;;16.55;10.25;;;;;;;7.10;74.44;102318.28;5004408;28;20038;-81
2021/10/09 07:57:57;;;;;;;17.45;8.80;;;;;;;7.22;74.20;102320.44;5018549;28;20104;-80
2021/10/09 08:00:22;;;;;;;19.42;8.95;;;;;;;7.32;73.10;102322.56;5005743;28;20041;-81
2021/10/09 08:02:49;;;;;;;14.63;8.90;;;;;;;7.42;72.84;102318.53;5023807;28;20029;-80
2021/10/09 08:05:15;;;;;;;20.88;9.10;;;;;;;7.54;72.36;102323.31;5018437;28;20042;-80
2021/10/09 08:07:41;;;;;;;19.42;9.05;;;;;;;7.65;71.37;102321.94;5006471;28;20033;-81
2021/10/09 08:10:06;;;;;;;12.40;7.45;;;;;;;7.76;70.50;102317.97;5011715;28;20141;-81
2021/10/09 08:12:32;;;;;;;15.35;8.95;;;;;;;7.88;70.25;102313.09;5010999;28;20034;-81
2021/10/09 08:14:57;;;;;;;14.90;7.85;;;;;;;7.99;69.92;102312.56;5005246;28;20093;-81
2021/10/09 08:17:23;;;;;;;17.33;8.52;;;;;;;8.08;69.53;102311.13;5006605;28;20026;-81
2021/10/09 08:19:48;;;;;;;14.85;8.10;;;;;;;8.19;68.73;102300.06;5005433;28;20052;-81
2021/10/09 08:22:14;;;;;;;16.00;8.63;;;;;;;8.29;68.44;102305.66;5004241;28;20038;-81
2021/10/09 08:24:46;;;;;;;14.98;7.85;;;;;;;8.41;68.40;102306.94;5018392;28;20042;-80
2021/10/09 08:27:20;;;;;;;16.45;7.97;;;;;;;8.48;67.65;102308.91;5028546;28;20049;-80
2021/10/09 08:35:35;;;;;;;14.75;7.80;;;;;;;8.85;65.74;102305.63;5010527;28;20404;-82
2021/10/09 08:40:45;;;;;;;14.05;6.55;;;;;;;9.11;64.08;102303.75;5001693;28;20053;-81
2021/10/09 08:43:10;;;;;;;10.50;6.82;;;;;;;9.27;62.96;102302.44;5003593;28;20050;-81
2021/10/09 08:45:35;;;;;;;11.30;5.63;;;;;;;9.40;62.10;102298.38;5018978;28;20034;-82
2021/10/09 08:48:01;;;;;;;12.88;5.90;;;;;;;9.50;60.65;102303.06;5017744;28;20105;-81
2021/10/09 08:50:26;;;;;;;13.48;6.45;;;;;;;9.63;59.59;102293.72;5025628;28;20064;-80
2021/10/09 08:53:00;;;;;;;14.02;6.20;;;;;;;9.79;60.14;102306.44;5008109;28;20049;-80
2021/10/09 08:55:28;;;;;;;12.90;5.97;;;;;;;9.90;58.17;102298.81;5019330;28;20112;-81
2021/10/09 08:57:57;;;;;;;12.52;6.05;;;;;;;10.00;58.32;102295.53;5003511;28;20019;-82
2021/10/09 09:00:50;;;;;;;14.13;5.53;;;;;;;10.14;56.15;102287.06;5008803;28;20076;-79
2021/10/09 09:03:19;;;;;;;12.85;5.18;;;;;;;10.29;57.59;102276.91;5009872;28;20042;-80
2021/10/09 09:08:50;;;;;;;11.70;5.65;;;;;;;10.50;56.17;102277.38;5006674;28;20133;-80
2021/10/09 09:25:55;;;;;;;9.30;4.72;;;;;;;11.44;51.50;102275.75;5008454;28;20277;-81
2021/10/09 09:31:14;;;;;;;12.57;4.65;;;;;;;11.67;50.39;102270.88;5008506;28;20598;-81
2021/10/09 09:33:54;;;;;;;7.88;3.95;;;;;;;11.77;49.60;102270.16;5008591;28;20041;-81
2021/10/09 09:36:31;;;;;;;9.75;4.05;;;;;;;11.80;48.83;102265.78;5005565;28;20133;-81
2021/10/09 09:39:07;;;;;;;8.60;3.95;;;;;;;11.93;48.51;102266.91;5012403;28;20540;-81
2021/10/09 09:41:47;;;;;;;10.32;3.95;;;;;;;12.03;48.01;102258.25;5008715;28;20070;-81
2021/10/09 09:44:16;;;;;;;8.13;4.15;;;;;;;12.14;48.39;102261.06;5005953;28;20030;-81
2021/10/09 09:46:59;;;;;;;8.73;3.38;;;;;;;12.28;48.65;102254.22;5025792;28;20585;-81
2021/10/09 09:49:26;;;;;;;12.23;4.18;;;;;;;12.35;47.57;102256.97;5005331;28;20401;-81
2021/10/09 09:51:51;;;;;;;7.25;3.83;;;;;;;12.43;46.96;102255.31;5020331;28;20041;-81
2021/10/09 09:54:17;;;;;;;7.65;3.92;;;;;;;12.49;46.90;102253.63;5007634;28;20038;-82
2021/10/09 09:56:43;;;;;;;15.20;3.78;;;;;;;12.55;46.02;102252.84;5008927;28;20117;-82
2021/10/09 09:59:10;;;;;;;8.45;3.70;;;;;;;12.64;47.05;102250.28;5006972;28;20033;-81
2021/10/09 10:01:36;;;;;;;8.52;3.75;;;;;;;12.67;45.95;102260.91;5003642;28;20444;-81
2021/10/09 10:04:02;;;;;;;8.05;3.92;;;;;;;12.77;45.37;102253.09;5006012;28;20090;-82
2021/10/09 10:06:28;;;;;;;8.13;4.07;;;;;;;12.83;45.43;102255.81;5005781;28;20040;-82
2021/10/09 10:08:58;;;;;;;9.32;3.78;;;;;;;12.95;46.06;102258.63;5004918;28;20507;-82
2021/10/09 10:11:25;;;;;;;8.93;3.30;;;;;;;13.04;46.26;102255.16;5008646;28;20034;-82
2021/10/09 10:13:51;;;;;;;7.97;3.65;;;;;;;13.02;43.94;102249.88;5002835;28;20041;-81
2021/10/09 10:16:17;;;;;;;7.78;3.95;;;;;;;13.09;44.57;102246.41;5003275;28;20069;-81
2021/10/09 10:18:45;;;;;;;6.70;3.45;;;;;;;13.20;43.65;102248.28;5020419;28;20404;-82
2021/10/09 10:21:12;;;;;;;9.63;3.08;;;;;;;13.23;43.42;102254.50;5006412;28;20516;-82
2021/10/09 10:23:42;;;;;;;8.85;3.30;;;;;;;13.30;43.66;102244.88;5023792;28;20045;-81
2021/10/09 10:26:20;;;;;;;5.93;3.17;;;;;;;13.40;42.48;102252.06;5005066;28;20057;-82
2021/10/09 10:28:51;;;;;;;6.38;3.20;;;;;;;13.44;43.40;102248.56;5004148;28;20394;-81
2021/10/09 10:31:16;;;;;;;6.22;3.40;;;;;;;13.49;42.99;102238.91;5008190;28;20041;-81
2021/10/09 10:33:43;;;;;;;9.85;3.13;;;;;;;13.52;42.26;102244.22;5020164;28;20034;-82
2021/10/09 10:36:11;;;;;;;9.20;3.58;;;;;;;13.54;41.88;102234.47;5006880;28;20076;-82
2021/10/09 10:38:46;;;;;;;7.57;3.67;;;;;;;13.53;41.56;102238.03;5006847;28;20464;-82
2021/10/09 10:41:17;;;;;;;9.25;3.47;;;;;;;13.64;41.94;102229.28;5007122;28;20386;-83
2021/10/09 10:46:27;;;;;;;6.43;3.40;;;;;;;13.87;41.53;102235.66;5003711;28;20038;-84
2021/10/09 10:51:36;;;;;;;6.28;3.38;;;;;;;14.01;40.82;102228.66;5005327;28;20038;-83
2021/10/09 10:54:16;;;;;;;7.93;3.55;;;;;;;14.04;40.66;102230.44;5006016;28;20163;-83
2021/10/09 10:56:57;;;;;;;8.88;3.53;;;;;;;14.06;41.19;102227.81;5019312;28;20042;-82
2021/10/09 10:59:35;;;;;;;6.75;3.38;;;;;;;14.09;40.25;102222.53;5008043;28;20065;-82
2021/10/09 11:02:29;;;;;;;6.72;3.53;;;;;;;14.17;39.82;102220.78;5008547;28;20029;-82
2021/10/09 11:05:03;;;;;;;10.52;3.83;;;;;;;14.28;40.41;102223.50;5001744;28;20069;-83
2021/10/09 11:07:36;;;;;;;7.40;3.45;;;;;;;14.31;39.93;102218.25;5004680;28;20168;-83
2021/10/09 11:10:10;;;;;;;7.40;3.50;;;;;;;14.43;40.68;102219.16;5002880;28;20076;-84
2021/10/09 11:12:41;;;;;;;6.72;3.60;;;;;;;14.53;40.04;102225.44;5003893;28;20143;-83
2021/10/09 11:15:15;;;;;;;6.78;3.60;;;;;;;14.50;40.06;102212.13;5020557;28;20088;-83
2021/10/09 11:17:42;;;;;;;7.38;3.30;;;;;;;14.62;41.21;102214.00;5001537;28;20034;-83
2021/10/09 11:20:28;;;;;;;6.85;3.33;;;;;;;14.71;39.61;102216.66;5003202;28;20411;-83
2021/10/09 11:22:55;;;;;;;8.98;3.70;;;;;;;14.93;39.96;102222.94;4993007;28;20034;-83
2021/10/09 11:25:29;;;;;;;8.45;3.75;;;;;;;15.17;39.79;102213.22;4982884;28;20035;-83
2021/10/09 11:27:56;;;;;;;7.90;3.78;;;;;;;15.37;39.69;102205.28;5007583;28;20045;-84
2021/10/09 11:30:23;;;;;;;7.82;3.47;;;;;;;15.52;38.49;102208.84;5021243;28;20129;-83
2021/10/09 11:32:48;;;;;;;7.85;3.30;;;;;;;15.61;38.12;102209.72;5002304;28;20045;-83
2021/10/09 11:35:26;;;;;;;17.10;3.85;;;;;;;15.76;37.90;102210.63;4982801;28;20619;-83
2021/10/09 11:37:52;;;;;;;7.20;3.30;;;;;;;15.89;37.68;102214.16;5020711;28;20026;-84
2021/10/09 11:41:02;;;;;;;8.00;3.20;;;;;;;16.04;36.39;102201.75;5001436;28;20038;-82
2021/10/09 11:55:20;;;;;;;5.63;2.90;;;;;;;16.82;32.53;102201.44;5010379;28;20076;-83
2021/10/09 11:57:46;;;;;;;9.52;3.25;;;;;;;17.01;33.43;102210.25;5023374;28;20121;-83
2021/10/09 12:00:31;;;;;;;7.43;3.08;;;;;;;17.20;33.17;102209.22;5002221;28;20412;-83
2021/10/09 12:02:58;;;;;;;5.75;2.88;;;;;;;17.39;34.18;102201.94;5003680;28;20041;-83
2021/10/09 12:05:33;;;;;;;10.65;2.88;;;;;;;17.61;33.51;102202.69;5019611;28;20030;-83
2021/10/09 12:08:25;;;;;;;7.32;3.00;;;;;;;17.70;33.02;102191.91;5002609;28;20104;-82
2021/10/09 12:11:25;;;;;;;5.07;3.13;;;;;;;17.91;32.63;102192.63;5018438;28;20037;-83
2021/10/09 12:13:59;;;;;;;8.00;3.08;;;;;;;17.99;30.82;102195.22;5004854;28;20069;-83
2021/10/09 12:16:31;;;;;;;6.60;2.60;;;;;;;18.16;31.70;102199.50;5002456;28;20242;-83
2021/10/09 12:18:58;;;;;;;8.25;2.72;;;;;;;18.31;31.07;102192.19;5005619;28;20030;-84
2021/10/09 12:21:26;;;;;;;5.97;2.63;;;;;;;18.32;30.93;102189.50;5003930;28;20069;-84
2021/10/09 12:23:53;;;;;;;5.45;2.75;;;;;;;18.53;30.78;102192.81;5001473;28;20493;-84
2021/10/09 12:26:21;;;;;;;5.63;2.35;;;;;;;18.71;30.19;102189.91;5007091;28;20718;-82
2021/10/09 12:29:05;;;;;;;6.57;2.80;;;;;;;18.79;28.81;102193.38;5006195;28;20077;-82
2021/10/09 12:31:32;;;;;;;6.03;3.28;;;;;;;18.83;28.91;102188.88;5001283;28;20042;-81
2021/10/09 12:33:58;;;;;;;7.10;2.85;;;;;;;18.79;28.05;102190.72;5002244;28;20412;-82
2021/10/09 12:36:38;;;;;;;7.88;3.25;;;;;;;18.94;28.85;102186.94;5003508;28;20041;-82
2021/10/09 12:39:23;;;;;;;6.57;2.80;;;;;;;19.17;27.72;102183.91;5030179;28;20095;-82
2021/10/09 12:41:54;;;;;;;5.78;2.55;;;;;;;19.35;28.09;102185.41;5006032;28;20038;-83
2021/10/09 12:44:20;;;;;;;5.45;2.83;;;;;;;19.45;28.45;102181.66;5007731;28;20105;-82
2021/10/09 12:46:46;;;;;;;6.45;2.60;;;;;;;19.67;28.02;102182.19;5009740;28;20097;-82
2021/10/09 12:49:11;;;;;;;6.88;3.38;;;;;;;19.79;27.36;102180.22;5008851;28;20493;-82
2021/10/09 12:51:37;;;;;;;8.30;3.08;;;;;;;19.91;27.40;102180.91;5008858;28;20038;-81
2021/10/09 12:54:05;;;;;;;5.10;2.88;;;;;;;19.98;27.35;102170.91;5009839;28;20038;-82
2021/10/09 12:56:31;;;;;;;8.30;3.42;;;;;;;20.10;26.50;102168.00;5014618;28;20092;-82
2021/10/09 12:58:56;;;;;;;7.20;2.95;;;;;;;20.28;26.41;102161.41;5015128;28;20068;-82
2021/10/09 13:01:21;;;;;;;6.97;2.75;;;;;;;20.54;27.48;102160.88;5029167;28;20053;-83
2021/10/09 13:03:47;;;;;;;6.35;2.95;;;;;;;20.58;26.34;102161.69;5027802;28;20037;-82
2021/10/09 13:06:12;;;;;;;6.97;2.90;;;;;;;20.79;26.68;102154.94;5013364;28;20034;-82
2021/10/09 13:08:38;;;;;;;5.32;2.78;;;;;;;20.73;26.36;102155.09;5010212;28;20084;-81
2021/10/09 13:11:04;;;;;;;5.45;3.08;;;;;;;20.85;26.09;102152.13;5008103;28;20086;-81
2021/10/09 13:13:29;;;;;;;9.60;3.45;;;;;;;20.77;25.09;102154.09;5023892;28;20069;-82
2021/10/09 13:15:54;;;;;;;6.28;2.65;;;;;;;20.83;24.95;102145.94;5010876;28;20054;-81
2021/10/09 13:18:20;;;;;;;4.13;2.50;;;;;;;20.96;24.94;102150.09;5026883;28;20488;-81
2021/10/09 13:20:45;;;;;;;5.93;3.03;;;;;;;21.08;24.94;102139.97;4991803;28;20049;-81